Aérodrome :
LOGIN :

S'inscrire | Disclaimer

   EN    FR    IT 

 










Légende :    VFR   VFR Marginal   IFR   IFR Intensif   IFR Très Intensif
Visi : 
Plafond : 
>= 8 km
>= 3000ft
5 à 8 km
1000 à 3000 ft
1500m à 5 km
500 à 1000 ft
800 à 1500m
200 à 500 ft
< 800m
< 200 ft
Symboles :   Orages  Brouillard  Fortes neiges  Fortes précipitations  Vent > 20 kt
SIGMETs :   Divers  Orages  Givrage  Turbulence  Onde Orograph.  Cendres Volcan.






- Altitude de l'aérodrome : 464 ft
- Code IATA : EVX


LFOE - Evreux

DERNIER METAR :
  • 091930Z AUTO 31004KT 0500 0450 R22/0600N FZFG VV/// M01/M01 Q1007 NOSIG

METARs EXPIRÉS :
  • 090500Z AUTO 04005KT 010V070 2600 1400 R22/1800D BR VV/// M01/M01 Q1006 TEMPO 0500 FZFG
  • 091900Z AUTO 32005KT 300V360 0450 R22/0600U FZFG VV/// M02/M02 Q1007 BECMG 3000 BR BKN003
  • 091830Z AUTO 34005KT 310V060 0750 0600 R22/0700D FZFG VV/// M02/M02 Q1007 BECMG 3000 BR BKN003
  • 091800Z AUTO 32004KT 6000 NSC M02/M03 Q1007 BECMG 3000 BR BKN003
  • 091730Z AUTO 31005KT 6000 NSC M02/M03 Q1007 BECMG 3000 BR BKN003
  • 091700Z AUTO 31003KT 7000 NSC M01/M02 Q1006 BECMG 3000 BR BKN003
  • 091630Z AUTO 32003KT 310V010 9000 NSC M00/M01 Q1006 BECMG 3000 BR BKN003

TAF AMD TAF LFOE
Valide du 09 à 19h jusqu'au 10 à 15h UTC


091901Z 0919/1015 35004KT 0500 FZFG VV///
TEMPO 1000/1009 0200 FZFG
BECMG 1009/1011 25005KT 4000 BR BKN003
BECMG 1013/1015 8000 NSW SCT008



MET'MAP, la Météo Aéronautique d'un coup d'oeil ! - Copyright ORBIFLY Décembre 2007 - Disclaimer

ORBIFLY MET'MAP TEAM :

Programmation & Développement : Alexandra Zaïnal
Sur une idée originale de : Baudouin d'Aumeries
Soutien technique & logistique : Manuel Goepfert
Assistance : Marc-Olivier Méhu




SOURCES & CREDITS :

   NOAA